createdAt,value
2022-08-24T00:02:06.347Z,21.45
2022-08-24T00:04:35.640Z,21.42
2022-08-24T00:07:05.688Z,21.39
2022-08-24T00:09:41.536Z,21.36
2022-08-24T00:12:11.361Z,21.33
2022-08-24T00:14:43.328Z,21.31
2022-08-24T00:17:11.905Z,21.28
2022-08-24T00:19:40.517Z,21.26
2022-08-24T00:22:10.063Z,21.23
2022-08-24T00:24:38.717Z,21.20
2022-08-24T00:27:07.742Z,21.17
2022-08-24T00:29:38.139Z,21.13
2022-08-24T00:32:07.099Z,21.10
2022-08-24T00:34:36.416Z,21.07
2022-08-24T00:37:05.213Z,21.05
2022-08-24T00:39:33.597Z,21.03
2022-08-24T00:42:01.968Z,20.99
2022-08-24T00:44:30.318Z,20.97
2022-08-24T00:47:03.221Z,20.95
2022-08-24T00:49:37.499Z,20.90
2022-08-24T00:52:14.844Z,20.90
2022-08-24T00:54:46.882Z,20.87
2022-08-24T00:57:19.161Z,20.85
2022-08-24T00:59:56.690Z,20.82
2022-08-24T01:02:32.647Z,20.79
2022-08-24T01:05:05.364Z,20.75
2022-08-24T01:07:35.407Z,20.71
2022-08-24T01:10:08.352Z,20.67
2022-08-24T01:12:38.683Z,20.65
2022-08-24T01:15:10.553Z,20.60
2022-08-24T01:17:58.240Z,20.57
2022-08-24T01:20:27.125Z,20.55
2022-08-24T01:23:04.885Z,20.52
2022-08-24T01:25:37.482Z,20.50
2022-08-24T01:28:13.352Z,20.47
2022-08-24T01:30:44.807Z,20.44
2022-08-24T01:33:24.963Z,20.41
2022-08-24T01:35:58.564Z,20.38
2022-08-24T01:38:28.311Z,20.35
2022-08-24T01:41:03.109Z,20.30
2022-08-24T01:43:32.241Z,20.28
2022-08-24T01:46:07.510Z,20.25
2022-08-24T01:48:35.896Z,20.22
2022-08-24T01:51:04.710Z,20.22
2022-08-24T01:53:33.956Z,20.21
2022-08-24T01:56:04.274Z,20.20
2022-08-24T01:58:33.290Z,20.19
2022-08-24T02:01:01.932Z,20.16
2022-08-24T02:03:31.071Z,20.15
2022-08-24T02:06:01.511Z,20.13
2022-08-24T02:08:34.375Z,20.10
2022-08-24T02:11:06.542Z,20.08
2022-08-24T02:13:35.510Z,20.06
2022-08-24T02:16:05.569Z,20.04
2022-08-24T02:18:36.371Z,20.02
2022-08-24T02:21:05.035Z,20.00
2022-08-24T02:23:33.722Z,19.97
2022-08-24T02:26:02.134Z,19.94
2022-08-24T02:28:32.503Z,19.93
2022-08-24T02:31:01.231Z,19.90
2022-08-24T02:33:31.909Z,19.85
2022-08-24T02:36:00.446Z,19.79
2022-08-24T02:38:29.010Z,19.76
2022-08-24T02:40:57.974Z,19.74
2022-08-24T02:43:26.944Z,19.73
2022-08-24T02:45:58.898Z,19.71
2022-08-24T02:48:27.863Z,19.68
2022-08-24T02:50:56.555Z,19.65
2022-08-24T02:53:25.185Z,19.64
2022-08-24T02:55:53.497Z,19.60
2022-08-24T02:58:21.887Z,19.58
2022-08-24T03:00:50.746Z,19.55
2022-08-24T03:03:23.000Z,19.52
2022-08-24T03:05:51.897Z,19.51
2022-08-24T03:08:23.203Z,19.49
2022-08-24T03:10:52.810Z,19.46
2022-08-24T03:13:21.290Z,19.45
2022-08-24T03:15:49.873Z,19.42
2022-08-24T03:18:18.302Z,19.38
2022-08-24T03:20:55.478Z,19.37
2022-08-24T03:23:24.578Z,19.35
2022-08-24T03:25:53.057Z,19.34
2022-08-24T03:28:24.094Z,19.30
2022-08-24T03:30:52.683Z,19.29
2022-08-24T03:33:21.934Z,19.27
2022-08-24T03:35:50.361Z,19.25
2022-08-24T03:38:21.257Z,19.23
2022-08-24T03:40:50.889Z,19.23
2022-08-24T03:43:37.110Z,19.22
2022-08-24T03:46:07.871Z,19.20
2022-08-24T03:48:39.097Z,19.18
2022-08-24T03:51:08.258Z,19.16
2022-08-24T03:53:42.364Z,19.15
2022-08-24T03:56:11.987Z,19.13
2022-08-24T03:58:42.537Z,19.10
2022-08-24T04:01:12.355Z,19.08
2022-08-24T04:03:43.862Z,19.05
2022-08-24T04:06:15.894Z,19.03
2022-08-24T04:08:45.854Z,18.99
2022-08-24T04:11:16.713Z,18.98
2022-08-24T04:13:49.629Z,18.95
2022-08-24T04:16:20.152Z,18.92
2022-08-24T04:18:54.051Z,18.90
2022-08-24T04:21:25.062Z,18.87
2022-08-24T04:23:55.419Z,18.84
2022-08-24T04:26:44.085Z,18.81
2022-08-24T04:29:17.582Z,18.79
2022-08-24T04:31:54.384Z,18.77
2022-08-24T04:34:24.150Z,18.77
2022-08-24T04:36:53.009Z,18.75
2022-08-24T04:39:22.798Z,18.75
2022-08-24T04:42:20.855Z,18.74
2022-08-24T04:44:50.402Z,18.72
2022-08-24T04:47:20.995Z,18.71
2022-08-24T04:49:49.622Z,18.69
2022-08-24T04:52:18.462Z,18.67
2022-08-24T04:54:48.227Z,18.67
2022-08-24T04:57:21.413Z,18.65
2022-08-24T04:59:49.998Z,18.64
2022-08-24T05:02:18.849Z,18.64
2022-08-24T05:04:50.302Z,18.62
2022-08-24T05:07:19.674Z,18.61
2022-08-24T05:09:52.456Z,18.59
2022-08-24T05:12:21.817Z,18.58
2022-08-24T05:15:02.554Z,18.57
2022-08-24T05:17:36.773Z,18.56
2022-08-24T05:20:06.598Z,18.54
2022-08-24T05:22:35.058Z,18.55
2022-08-24T05:25:06.715Z,18.56
2022-08-24T05:27:36.122Z,18.56
2022-08-24T05:30:06.070Z,18.56
2022-08-24T05:32:34.450Z,18.56
2022-08-24T05:35:04.740Z,18.57
2022-08-24T05:37:36.319Z,18.57
2022-08-24T05:40:19.856Z,18.58
2022-08-24T05:42:51.684Z,18.60
2022-08-24T05:45:20.727Z,18.61
2022-08-24T05:47:51.500Z,18.63
2022-08-24T05:50:55.728Z,18.64
2022-08-24T05:53:26.460Z,18.66
2022-08-24T05:55:56.255Z,18.69
2022-08-24T05:58:30.654Z,18.72
2022-08-24T06:01:00.894Z,18.78
2022-08-24T06:03:29.379Z,18.81
2022-08-24T06:05:58.240Z,18.85
2022-08-24T06:08:26.702Z,18.91
2022-08-24T06:10:56.704Z,18.97
2022-08-24T06:13:25.105Z,19.04
2022-08-24T06:16:20.973Z,19.11
2022-08-24T06:18:51.942Z,19.16
2022-08-24T06:21:23.012Z,19.23
2022-08-24T06:23:52.116Z,19.28
2022-08-24T06:26:40.170Z,19.35
2022-08-24T06:29:09.530Z,19.42
2022-08-24T06:31:47.147Z,19.49
2022-08-24T06:34:17.955Z,19.55
2022-08-24T06:36:47.580Z,19.62
2022-08-24T06:39:16.046Z,19.69
2022-08-24T06:41:48.275Z,19.77
2022-08-24T06:44:29.922Z,19.85
2022-08-24T06:47:06.516Z,19.94
2022-08-24T06:49:37.204Z,20.04
2022-08-24T06:52:06.178Z,20.14
2022-08-24T06:54:34.721Z,20.23
2022-08-24T06:57:06.786Z,20.33
2022-08-24T06:59:35.132Z,20.42
2022-08-24T07:02:03.651Z,20.53
2022-08-24T07:04:32.512Z,20.61
2022-08-24T07:07:13.071Z,20.72
2022-08-24T07:09:45.473Z,20.81
2022-08-24T07:12:15.237Z,20.88
2022-08-24T07:14:43.599Z,20.99
2022-08-24T07:17:12.152Z,21.08
2022-08-24T07:19:41.298Z,21.17
2022-08-24T07:22:10.569Z,21.26
2022-08-24T07:24:39.201Z,21.36
2022-08-24T07:27:10.600Z,21.43
2022-08-24T07:29:56.442Z,21.52
2022-08-24T07:32:30.093Z,21.62
2022-08-24T07:34:58.716Z,21.71
2022-08-24T07:37:40.159Z,21.81
2022-08-24T07:40:10.493Z,21.91
2022-08-24T07:42:40.909Z,22.00
2022-08-24T07:45:15.531Z,22.09
2022-08-24T07:47:54.970Z,22.18
2022-08-24T07:50:37.326Z,22.27
2022-08-24T07:53:09.722Z,22.36
2022-08-24T07:55:46.150Z,22.43
2022-08-24T07:58:15.044Z,22.51
2022-08-24T08:00:48.300Z,22.58
2022-08-24T08:03:16.779Z,22.70
2022-08-24T08:05:46.919Z,22.76
2022-08-24T08:08:15.948Z,22.85
2022-08-24T08:10:47.253Z,22.94
2022-08-24T08:13:15.733Z,23.02
2022-08-24T08:15:44.225Z,23.11
2022-08-24T08:18:14.632Z,23.19
2022-08-24T08:20:43.596Z,23.28
2022-08-24T08:23:30.564Z,23.37
2022-08-24T08:26:16.559Z,23.48
2022-08-24T08:29:05.233Z,23.58
2022-08-24T08:31:37.737Z,23.66
2022-08-24T08:34:09.781Z,23.77
2022-08-24T08:36:40.241Z,23.84
2022-08-24T08:39:10.732Z,23.90
2022-08-24T08:42:05.212Z,23.99
2022-08-24T08:44:53.739Z,24.07
2022-08-24T08:47:43.688Z,24.14
2022-08-24T08:50:21.857Z,24.23
2022-08-24T08:53:24.594Z,24.31
2022-08-24T08:56:04.442Z,24.41
2022-08-24T08:58:51.123Z,24.49
2022-08-24T09:01:46.644Z,24.61
2022-08-24T09:04:52.129Z,24.73
2022-08-24T09:07:34.044Z,24.84
2022-08-24T09:10:32.589Z,24.97
2022-08-24T09:13:17.238Z,25.06
2022-08-24T09:16:10.903Z,25.14
2022-08-24T09:18:54.804Z,25.21
2022-08-24T09:21:46.472Z,25.28
2022-08-24T09:24:37.335Z,25.37
2022-08-24T09:27:26.175Z,25.45
2022-08-24T09:30:08.989Z,25.50
2022-08-24T09:32:51.093Z,25.60
2022-08-24T09:35:27.217Z,25.69
2022-08-24T09:38:01.156Z,25.77
2022-08-24T09:40:38.055Z,25.83
2022-08-24T09:43:39.147Z,25.93
2022-08-24T09:46:52.253Z,26.05
2022-08-24T09:50:16.957Z,26.19
2022-08-24T09:53:10.890Z,26.33
2022-08-24T09:56:08.372Z,26.44
2022-08-24T09:58:48.555Z,26.56
2022-08-24T10:01:27.146Z,26.67
2022-08-24T10:04:09.886Z,26.75
2022-08-24T10:06:54.637Z,26.79
2022-08-24T10:09:51.049Z,26.92
2022-08-24T10:12:34.727Z,27.04
2022-08-24T10:15:08.940Z,27.17
2022-08-24T10:17:48.491Z,27.29
2022-08-24T10:20:23.786Z,27.40
2022-08-24T10:23:04.503Z,27.49
2022-08-24T10:25:40.053Z,27.58
2022-08-24T10:28:34.943Z,27.70
2022-08-24T10:31:09.745Z,27.80
2022-08-24T10:33:57.134Z,27.92
2022-08-24T10:36:46.286Z,28.02
2022-08-24T10:39:41.454Z,28.12
2022-08-24T10:43:01.908Z,28.24
2022-08-24T10:46:02.276Z,28.40
2022-08-24T10:49:03.869Z,28.49
2022-08-24T10:51:50.288Z,28.58
2022-08-24T10:54:20.460Z,28.65
2022-08-24T10:56:58.812Z,28.71
2022-08-24T10:59:32.152Z,28.74
2022-08-24T11:02:09.511Z,28.79
2022-08-24T11:04:41.809Z,28.86
2022-08-24T11:07:18.714Z,28.99
2022-08-24T11:09:52.095Z,29.09
2022-08-24T11:12:28.410Z,29.19
2022-08-24T11:14:59.690Z,29.27
2022-08-24T11:17:31.991Z,29.35
2022-08-24T11:20:00.394Z,29.44
2022-08-24T11:22:37.726Z,29.54
2022-08-24T11:25:14.752Z,29.62
2022-08-24T11:27:47.232Z,29.73
2022-08-24T11:30:24.774Z,29.84
2022-08-24T11:32:56.456Z,29.94
2022-08-24T11:35:27.795Z,30.06
2022-08-24T11:37:59.212Z,30.16
2022-08-24T11:40:30.518Z,30.12
2022-08-24T11:43:12.888Z,30.18
2022-08-24T11:45:46.696Z,30.24
2022-08-24T11:48:29.699Z,30.30
2022-08-24T11:51:05.097Z,30.38
2022-08-24T11:53:46.508Z,30.41
2022-08-24T11:56:26.345Z,30.50
2022-08-24T11:59:02.655Z,30.62
2022-08-24T12:01:43.557Z,30.74
2022-08-24T12:04:36.375Z,30.89
2022-08-24T12:07:18.359Z,31.01
2022-08-24T12:10:02.751Z,31.01
2022-08-24T12:12:38.718Z,30.94
2022-08-24T12:15:12.889Z,30.93
2022-08-24T12:17:52.223Z,30.96
2022-08-24T12:20:31.833Z,31.09
2022-08-24T12:23:08.706Z,31.27
2022-08-24T12:25:55.353Z,31.40
2022-08-24T12:28:28.875Z,31.55
2022-08-24T12:31:03.881Z,31.66
2022-08-24T12:33:37.688Z,31.77
2022-08-24T12:36:22.360Z,31.91
2022-08-24T12:39:10.306Z,32.07
2022-08-24T12:41:51.133Z,32.22
2022-08-24T12:44:25.470Z,32.36
2022-08-24T12:46:54.775Z,32.47
2022-08-24T12:49:30.524Z,32.58
2022-08-24T12:52:46.957Z,32.60
2022-08-24T12:55:28.897Z,32.61
2022-08-24T12:58:30.920Z,32.64
2022-08-24T13:00:57.359Z,32.70
2022-08-24T13:03:35.851Z,32.72
2022-08-24T13:06:07.024Z,32.86
2022-08-24T13:08:38.260Z,32.95
2022-08-24T13:11:15.695Z,33.02
2022-08-24T13:13:48.642Z,33.11
2022-08-24T13:16:47.470Z,33.32
2022-08-24T13:19:19.151Z,33.43
2022-08-24T13:21:55.864Z,33.55
2022-08-24T13:24:50.184Z,33.60
2022-08-24T13:27:49.549Z,33.69
2022-08-24T13:30:31.862Z,33.85
2022-08-24T13:33:13.396Z,34.01
2022-08-24T13:35:58.521Z,34.19
2022-08-24T13:38:52.317Z,34.35
2022-08-24T13:41:45.546Z,34.45
2022-08-24T13:44:29.141Z,34.46
2022-08-24T13:47:09.215Z,34.51
2022-08-24T13:50:01.682Z,34.56
2022-08-24T13:52:41.341Z,34.67
2022-08-24T13:55:33.790Z,34.79
2022-08-24T13:58:13.916Z,34.91
2022-08-24T14:00:48.445Z,35.01
2022-08-24T14:03:52.049Z,35.01
2022-08-24T14:06:31.302Z,35.07
2022-08-24T14:09:18.598Z,35.09
2022-08-24T14:12:05.182Z,35.03
2022-08-24T14:14:56.657Z,34.88
2022-08-24T14:17:55.069Z,34.67
2022-08-24T14:20:44.637Z,34.55
2022-08-24T14:23:28.117Z,34.58
2022-08-24T14:26:29.465Z,34.64
2022-08-24T14:29:33.930Z,34.79
2022-08-24T14:32:26.123Z,34.88
2022-08-24T14:35:04.930Z,35.02
2022-08-24T14:37:50.550Z,35.24
2022-08-24T14:40:30.712Z,35.47
2022-08-24T14:43:25.056Z,35.61
2022-08-24T14:46:04.377Z,35.79
2022-08-24T14:48:41.008Z,35.95
2022-08-24T14:51:16.318Z,36.17
2022-08-24T14:54:00.399Z,36.28
2022-08-24T14:56:48.265Z,36.28
2022-08-24T14:59:31.514Z,36.44
2022-08-24T15:02:35.298Z,36.64
2022-08-24T15:05:13.755Z,36.85
2022-08-24T15:07:53.034Z,37.03
2022-08-24T15:10:26.947Z,37.22
2022-08-24T15:13:03.597Z,37.35
2022-08-24T15:15:39.494Z,37.50
2022-08-24T15:18:24.539Z,37.61
2022-08-24T15:21:06.226Z,37.74
2022-08-24T15:23:51.567Z,37.82
2022-08-24T15:26:30.963Z,37.84
2022-08-24T15:29:00.274Z,37.85
2022-08-24T15:31:30.417Z,37.84
2022-08-24T15:34:01.190Z,37.89
2022-08-24T15:36:32.992Z,37.96
2022-08-24T15:39:01.734Z,38.04
2022-08-24T15:41:35.551Z,38.11
2022-08-24T15:44:07.463Z,38.21
2022-08-24T15:46:39.306Z,38.28
2022-08-24T15:49:15.432Z,38.34
2022-08-24T15:51:49.346Z,38.33
2022-08-24T15:54:31.948Z,38.33
2022-08-24T15:57:04.445Z,38.41
2022-08-24T15:59:48.200Z,38.40
2022-08-24T16:02:26.176Z,38.39
2022-08-24T16:05:02.977Z,38.33
2022-08-24T16:07:34.840Z,38.21
2022-08-24T16:10:09.174Z,38.17
2022-08-24T16:12:39.482Z,38.16
2022-08-24T16:15:17.950Z,38.16
2022-08-24T16:17:51.281Z,38.17
2022-08-24T16:20:33.194Z,38.14
2022-08-24T16:23:05.358Z,38.13
2022-08-24T16:25:39.850Z,38.14
2022-08-24T16:28:32.997Z,38.18
2022-08-24T16:31:03.119Z,38.13
2022-08-24T16:33:46.910Z,38.07
2022-08-24T16:36:18.845Z,37.97
2022-08-24T16:38:49.971Z,37.89
2022-08-24T16:41:21.283Z,37.83
2022-08-24T16:43:51.226Z,37.81
2022-08-24T16:46:22.363Z,37.78
2022-08-24T16:48:50.877Z,37.74
2022-08-24T16:51:19.215Z,37.63
2022-08-24T16:53:47.521Z,37.56
2022-08-24T16:56:16.921Z,37.47
2022-08-24T16:58:47.612Z,37.38
2022-08-24T17:01:18.099Z,37.29
2022-08-24T17:03:46.996Z,37.17
2022-08-24T17:06:18.033Z,36.95
2022-08-24T17:08:47.480Z,36.71
2022-08-24T17:11:16.612Z,36.47
2022-08-24T17:13:52.080Z,36.21
2022-08-24T17:16:22.749Z,35.96
2022-08-24T17:18:51.330Z,35.75
2022-08-24T17:21:20.316Z,35.53
2022-08-24T17:23:50.302Z,35.29
2022-08-24T17:26:21.871Z,35.09
2022-08-24T17:28:54.399Z,34.87
2022-08-24T17:31:24.988Z,34.66
2022-08-24T17:33:53.962Z,34.48
2022-08-24T17:36:24.360Z,34.32
2022-08-24T17:38:56.157Z,34.17
2022-08-24T17:41:25.825Z,34.02
2022-08-24T17:43:55.314Z,33.89
2022-08-24T17:46:25.283Z,33.77
2022-08-24T17:48:53.682Z,33.63
2022-08-24T17:51:22.053Z,33.49
2022-08-24T17:53:50.429Z,33.34
2022-08-24T17:56:19.841Z,33.19
2022-08-24T17:59:05.947Z,33.04
2022-08-24T18:01:36.147Z,32.90
2022-08-24T18:04:05.159Z,32.76
2022-08-24T18:06:34.050Z,32.61
2022-08-24T18:09:04.989Z,32.48
2022-08-24T18:11:34.168Z,32.33
2022-08-24T18:14:02.873Z,32.20
2022-08-24T18:16:32.098Z,32.07
2022-08-24T18:19:02.298Z,31.93
2022-08-24T18:21:30.716Z,31.79
2022-08-24T18:24:01.366Z,31.65
2022-08-24T18:26:31.161Z,31.52
2022-08-24T18:29:08.858Z,31.37
2022-08-24T18:31:37.279Z,31.25
2022-08-24T18:34:07.445Z,31.12
2022-08-24T18:36:36.036Z,31.00
2022-08-24T18:39:07.174Z,30.89
2022-08-24T18:41:39.207Z,30.78
2022-08-24T18:44:13.395Z,30.67
2022-08-24T18:46:43.913Z,30.56
2022-08-24T18:49:13.619Z,30.46
2022-08-24T18:51:42.357Z,30.36
2022-08-24T18:54:13.033Z,30.27
2022-08-24T18:56:41.346Z,30.17
2022-08-24T18:59:12.415Z,30.08
2022-08-24T19:01:55.331Z,29.98
2022-08-24T19:04:29.516Z,29.90
2022-08-24T19:07:01.958Z,29.81
2022-08-24T19:09:34.161Z,29.74
2022-08-24T19:12:03.764Z,29.66
2022-08-24T19:14:32.634Z,29.60
2022-08-24T19:17:01.032Z,29.52
2022-08-24T19:19:30.818Z,29.43
2022-08-24T19:21:59.520Z,29.35
2022-08-24T19:24:32.210Z,29.26
2022-08-24T19:27:01.724Z,29.17
2022-08-24T19:29:54.727Z,29.11
2022-08-24T19:32:22.999Z,29.02
2022-08-24T19:34:53.265Z,28.95
2022-08-24T19:37:22.459Z,28.88
2022-08-24T19:39:51.362Z,28.81
2022-08-24T19:42:20.382Z,28.72
2022-08-24T19:45:06.425Z,28.65
2022-08-24T19:47:35.026Z,28.57
2022-08-24T19:50:07.176Z,28.50
2022-08-24T19:52:36.374Z,28.46
2022-08-24T19:55:06.309Z,28.42
2022-08-24T19:57:44.431Z,28.35
2022-08-24T20:00:26.407Z,28.30
2022-08-24T20:02:56.831Z,28.24
2022-08-24T20:05:28.834Z,28.14
2022-08-24T20:07:59.140Z,28.08
2022-08-24T20:10:28.345Z,28.04
2022-08-24T20:12:56.786Z,27.98
2022-08-24T20:15:25.493Z,27.91
2022-08-24T20:17:57.119Z,27.87
2022-08-24T20:20:29.061Z,27.82
2022-08-24T20:23:00.376Z,27.79
2022-08-24T20:25:28.834Z,27.73
2022-08-24T20:28:25.591Z,27.66
2022-08-24T20:30:47.519Z,27.60
2022-08-24T20:33:21.022Z,27.55
2022-08-24T20:35:50.847Z,27.49
2022-08-24T20:38:21.269Z,27.42
2022-08-24T20:40:51.300Z,27.37
2022-08-24T20:43:19.943Z,27.30
2022-08-24T20:45:51.446Z,27.24
2022-08-24T20:48:25.690Z,27.19
2022-08-24T20:50:55.454Z,27.11
2022-08-24T20:53:23.866Z,27.05
2022-08-24T20:55:52.326Z,27.00
2022-08-24T20:58:22.424Z,26.93
2022-08-24T21:00:51.090Z,26.86
2022-08-24T21:03:19.880Z,26.81
2022-08-24T21:05:51.203Z,26.77
2022-08-24T21:08:21.117Z,26.70
2022-08-24T21:10:49.581Z,26.66
2022-08-24T21:13:18.121Z,26.61
2022-08-24T21:15:47.841Z,26.55
2022-08-24T21:18:16.482Z,26.49
2022-08-24T21:21:03.215Z,26.40
2022-08-24T21:23:35.053Z,26.33
2022-08-24T21:26:04.779Z,26.25
2022-08-24T21:28:34.498Z,26.20
2022-08-24T21:31:06.191Z,26.13
2022-08-24T21:33:52.783Z,26.08
2022-08-24T21:36:23.318Z,26.02
2022-08-24T21:38:53.521Z,26.00
2022-08-24T21:41:22.901Z,25.98
2022-08-24T21:43:51.669Z,25.95
2022-08-24T21:46:20.132Z,25.91
2022-08-24T21:48:48.508Z,25.86
2022-08-24T21:51:16.966Z,25.82
2022-08-24T21:53:45.301Z,25.77
2022-08-24T21:56:24.329Z,25.72
2022-08-24T21:58:53.419Z,25.69
2022-08-24T22:01:21.870Z,25.63
2022-08-24T22:03:50.481Z,25.60
2022-08-24T22:06:18.926Z,25.56
2022-08-24T22:08:47.382Z,25.53
2022-08-24T22:11:20.064Z,25.51
2022-08-24T22:13:48.989Z,25.49
2022-08-24T22:16:17.894Z,25.45
2022-08-24T22:18:46.247Z,25.45
2022-08-24T22:21:17.454Z,25.43
2022-08-24T22:23:46.839Z,25.41
2022-08-24T22:26:15.273Z,25.40
2022-08-24T22:28:44.982Z,25.38
2022-08-24T22:31:18.693Z,25.36
2022-08-24T22:33:47.126Z,25.33
2022-08-24T22:36:17.629Z,25.29
2022-08-24T22:38:46.579Z,25.25
2022-08-24T22:41:15.486Z,25.23
2022-08-24T22:44:02.804Z,25.20
2022-08-24T22:46:31.185Z,25.15
2022-08-24T22:49:00.915Z,25.11
2022-08-24T22:51:30.526Z,25.09
2022-08-24T22:53:59.254Z,25.05
2022-08-24T22:56:30.799Z,25.02
2022-08-24T22:59:00.554Z,25.00
2022-08-24T23:01:31.182Z,24.98
2022-08-24T23:04:01.544Z,24.97
2022-08-24T23:06:30.385Z,24.94
2022-08-24T23:08:59.402Z,24.91
2022-08-24T23:11:28.054Z,24.90
2022-08-24T23:13:58.363Z,24.88
2022-08-24T23:16:28.805Z,24.87
2022-08-24T23:19:14.864Z,24.83
2022-08-24T23:21:43.449Z,24.81
2022-08-24T23:24:12.794Z,24.78
2022-08-24T23:26:42.666Z,24.75
2022-08-24T23:29:13.410Z,24.71
2022-08-24T23:31:44.253Z,24.67
2022-08-24T23:34:13.147Z,24.64
2022-08-24T23:36:42.254Z,24.61
2022-08-24T23:39:12.210Z,24.58
2022-08-24T23:41:44.265Z,24.54
2022-08-24T23:44:16.714Z,24.52
2022-08-24T23:46:47.028Z,24.49
2022-08-24T23:49:20.807Z,24.47
2022-08-24T23:51:50.190Z,24.44
2022-08-24T23:54:21.460Z,24.41
2022-08-24T23:56:50.712Z,24.38
2022-08-24T23:59:21.373Z,24.36
